createdAt,value
2023-01-10T00:02:00.462Z,38.80
2023-01-10T00:04:32.182Z,38.10
2023-01-10T00:07:03.846Z,37.50
2023-01-10T00:09:35.480Z,38.10
2023-01-10T00:12:25.789Z,38.80
2023-01-10T00:14:57.495Z,38.50
2023-01-10T00:17:29.210Z,39.20
2023-01-10T00:20:00.914Z,36.30
2023-01-10T00:22:32.637Z,41.20
2023-01-10T00:25:04.827Z,37.60
2023-01-10T00:27:36.657Z,33.20
2023-01-10T00:30:17.877Z,35.90
2023-01-10T00:32:49.567Z,33.70
2023-01-10T00:35:21.396Z,36.10
2023-01-10T00:37:57.998Z,31.20
2023-01-10T00:40:29.725Z,35.80
2023-01-10T00:43:20.320Z,35.80
2023-01-10T00:45:51.938Z,36.90
2023-01-10T00:48:24.056Z,35.10
2023-01-10T00:50:56.073Z,37.10
2023-01-10T00:53:27.856Z,37.20
2023-01-10T00:55:59.530Z,35.20
2023-01-10T00:58:31.131Z,37.50
2023-01-10T01:01:02.862Z,31.10
2023-01-10T01:03:34.577Z,33.70
2023-01-10T01:06:07.733Z,32.00
2023-01-10T01:08:39.379Z,30.00
2023-01-10T01:11:11.170Z,27.80
2023-01-10T01:13:42.835Z,32.10
2023-01-10T01:16:14.620Z,33.30
2023-01-10T01:18:46.375Z,36.00
2023-01-10T01:21:18.574Z,32.90
2023-01-10T01:23:51.289Z,34.30
2023-01-10T01:26:24.461Z,33.70
2023-01-10T01:28:56.246Z,37.00
2023-01-10T01:31:27.901Z,29.70
2023-01-10T01:33:59.720Z,31.00
2023-01-10T01:36:31.372Z,32.70
2023-01-10T01:39:04.147Z,29.10
2023-01-10T01:41:54.536Z,32.80
2023-01-10T01:45:24.862Z,30.60
2023-01-10T01:48:24.938Z,33.30
2023-01-10T01:51:11.234Z,31.00
2023-01-10T01:54:15.412Z,32.20
2023-01-10T01:57:06.561Z,27.70
2023-01-10T01:59:44.916Z,31.60
2023-01-10T02:02:28.984Z,30.00
2023-01-10T02:05:04.009Z,29.60
2023-01-10T02:07:38.933Z,28.90
2023-01-10T02:10:52.899Z,30.50
2023-01-10T02:13:26.896Z,27.80
2023-01-10T02:15:58.708Z,31.40
2023-01-10T02:18:30.564Z,32.30
2023-01-10T02:21:07.816Z,32.50
2023-01-10T02:23:58.601Z,34.60
2023-01-10T02:26:59.035Z,30.90
2023-01-10T02:30:03.545Z,32.90
2023-01-10T02:33:00.547Z,31.50
2023-01-10T02:35:57.068Z,31.50
2023-01-10T02:38:50.858Z,34.80
2023-01-10T02:41:40.984Z,34.10
2023-01-10T02:44:44.898Z,36.10
2023-01-10T02:47:59.034Z,36.70
2023-01-10T02:53:25.354Z,38.20
2023-01-10T02:56:09.732Z,35.10
2023-01-10T02:58:50.742Z,34.50
2023-01-10T03:01:37.916Z,37.00
2023-01-10T03:04:42.144Z,38.60
2023-01-10T03:08:00.141Z,43.20
2023-01-10T03:11:16.555Z,35.00
2023-01-10T03:14:30.819Z,30.50
2023-01-10T03:17:24.973Z,35.00
2023-01-10T03:20:39.012Z,32.20
2023-01-10T03:26:29.741Z,30.00
2023-01-10T03:29:11.544Z,37.30
2023-01-10T03:32:06.051Z,33.70
2023-01-10T03:34:59.435Z,37.20
2023-01-10T03:38:06.393Z,40.00
2023-01-10T03:40:52.810Z,38.50
2023-01-10T03:44:08.278Z,32.60
2023-01-10T03:46:49.818Z,41.00
2023-01-10T03:50:21.722Z,32.40
2023-01-10T03:52:54.525Z,46.90
2023-01-10T03:55:31.261Z,51.30
2023-01-10T03:58:13.637Z,45.30
2023-01-10T04:00:45.768Z,47.90
2023-01-10T04:03:17.746Z,45.60
2023-01-10T04:05:49.945Z,50.70
2023-01-10T04:08:22.175Z,44.80
2023-01-10T04:10:54.062Z,40.40
2023-01-10T04:13:26.030Z,46.90
2023-01-10T04:16:02.366Z,39.40
2023-01-10T04:18:34.615Z,44.70
2023-01-10T04:21:07.477Z,43.00
2023-01-10T04:23:39.381Z,40.10
2023-01-10T04:26:11.810Z,52.90
2023-01-10T04:28:43.482Z,46.30
2023-01-10T04:31:15.680Z,53.40
2023-01-10T04:33:47.842Z,52.00
2023-01-10T04:36:21.491Z,48.90
2023-01-10T04:41:30.318Z,50.20
2023-01-10T04:44:02.127Z,63.10
2023-01-10T04:46:59.140Z,56.30
2023-01-10T04:49:32.160Z,63.30
2023-01-10T04:52:04.271Z,54.30
2023-01-10T04:54:36.656Z,64.30
2023-01-10T04:57:08.331Z,64.80
2023-01-10T04:59:40.057Z,68.20
2023-01-10T05:02:11.901Z,58.80
2023-01-10T05:04:43.873Z,58.80
2023-01-10T05:07:15.627Z,61.90
2023-01-10T05:09:47.497Z,61.80
2023-01-10T05:12:19.185Z,55.50
2023-01-10T05:14:50.903Z,54.30
2023-01-10T05:17:22.570Z,55.60
2023-01-10T05:19:54.825Z,52.00
2023-01-10T05:22:26.533Z,50.20
2023-01-10T05:24:58.136Z,44.40
2023-01-10T05:27:29.896Z,50.20
2023-01-10T05:30:01.611Z,57.00
2023-01-10T05:32:33.275Z,49.00
2023-01-10T05:35:05.907Z,48.40
2023-01-10T05:37:38.203Z,45.50
2023-01-10T05:40:11.252Z,43.90
2023-01-10T05:42:43.122Z,46.30
2023-01-10T05:45:15.173Z,50.80
2023-01-10T05:47:48.974Z,49.80
2023-01-10T05:50:20.647Z,52.50
2023-01-10T05:52:52.423Z,50.40
2023-01-10T05:55:24.142Z,49.30
2023-01-10T05:57:55.801Z,46.90
2023-01-10T06:00:28.069Z,39.50
2023-01-10T06:02:59.792Z,44.80
2023-01-10T06:05:31.862Z,45.50
2023-01-10T06:08:03.665Z,48.00
2023-01-10T06:10:38.069Z,44.50
2023-01-10T06:13:09.948Z,41.50
2023-01-10T06:15:44.831Z,49.70
2023-01-10T06:18:19.287Z,42.30
2023-01-10T06:20:51.250Z,49.10
2023-01-10T06:23:30.472Z,59.40
2023-01-10T06:26:02.128Z,66.70
2023-01-10T06:28:36.231Z,87.10
2023-01-10T06:31:08.916Z,81.40
2023-01-10T06:33:41.713Z,63.50
2023-01-10T06:36:13.460Z,74.70
2023-01-10T06:38:45.223Z,73.10
2023-01-10T06:41:17.009Z,68.80
2023-01-10T06:43:51.806Z,72.40
2023-01-10T06:46:26.020Z,57.40
2023-01-10T06:48:57.604Z,49.80
2023-01-10T06:51:31.551Z,50.50
2023-01-10T06:54:03.351Z,46.20
2023-01-10T06:56:37.670Z,52.90
2023-01-10T06:59:12.528Z,58.00
2023-01-10T07:01:44.469Z,67.50
2023-01-10T07:04:16.284Z,70.80
2023-01-10T07:06:48.077Z,61.80
2023-01-10T07:09:20.137Z,55.90
2023-01-10T07:11:51.896Z,63.80
2023-01-10T07:14:23.649Z,59.00
2023-01-10T07:16:57.909Z,73.70
2023-01-10T07:19:29.668Z,71.20
2023-01-10T07:22:01.230Z,70.70
2023-01-10T07:24:35.908Z,77.10
2023-01-10T07:27:09.965Z,55.90
2023-01-10T07:29:41.669Z,53.30
2023-01-10T07:32:13.536Z,49.70
2023-01-10T07:34:48.152Z,55.50
2023-01-10T07:37:20.146Z,57.90
2023-01-10T07:39:56.312Z,58.30
2023-01-10T07:42:28.039Z,56.60
2023-01-10T07:44:59.695Z,53.50
2023-01-10T07:47:31.801Z,60.30
2023-01-10T07:50:06.700Z,49.10
2023-01-10T07:52:40.860Z,52.90
2023-01-10T07:55:12.865Z,61.20
2023-01-10T07:57:45.039Z,51.50
2023-01-10T08:00:19.094Z,49.80
2023-01-10T08:02:54.963Z,46.70
2023-01-10T08:05:26.949Z,50.40
2023-01-10T08:08:07.635Z,48.60
2023-01-10T08:10:42.721Z,48.90
2023-01-10T08:13:18.910Z,44.20
2023-01-10T08:15:52.076Z,50.20
2023-01-10T08:18:24.632Z,48.40
2023-01-10T08:20:56.274Z,47.60
2023-01-10T08:23:28.420Z,52.60
2023-01-10T08:26:00.204Z,56.50
2023-01-10T08:28:34.540Z,53.80
2023-01-10T08:31:10.381Z,57.60
2023-01-10T08:33:42.109Z,56.50
2023-01-10T08:36:18.848Z,54.30
2023-01-10T08:38:51.248Z,61.80
2023-01-10T08:41:23.231Z,53.50
2023-01-10T08:43:54.970Z,55.50
2023-01-10T08:46:27.079Z,49.20
2023-01-10T08:48:58.943Z,50.20
2023-01-10T08:51:31.977Z,52.30
2023-01-10T08:54:07.277Z,58.30
2023-01-10T08:56:41.992Z,47.70
2023-01-10T08:59:13.815Z,52.00
2023-01-10T09:01:47.980Z,50.70
2023-01-10T09:04:19.702Z,50.40
2023-01-10T09:06:51.426Z,51.70
2023-01-10T09:09:23.408Z,52.10
2023-01-10T09:11:55.134Z,52.60
2023-01-10T09:14:29.071Z,49.30
2023-01-10T09:17:00.859Z,51.80
2023-01-10T09:19:33.092Z,46.40
2023-01-10T09:22:04.856Z,48.60
2023-01-10T09:24:38.327Z,52.80
2023-01-10T09:27:11.541Z,52.60
2023-01-10T09:29:43.372Z,44.20
2023-01-10T09:32:15.578Z,45.50
2023-01-10T09:34:49.563Z,44.90
2023-01-10T09:37:21.231Z,48.60
2023-01-10T09:39:53.102Z,49.50
2023-01-10T09:42:42.460Z,77.40
2023-01-10T09:45:26.517Z,75.70
2023-01-10T09:48:05.540Z,65.80
2023-01-10T09:50:53.611Z,61.70
2023-01-10T09:53:30.251Z,51.70
2023-01-10T09:56:07.923Z,48.30
2023-01-10T09:58:39.911Z,48.70
2023-01-10T10:01:23.572Z,46.80
2023-01-10T10:04:15.396Z,55.50
2023-01-10T10:06:53.803Z,61.50
2023-01-10T10:09:31.514Z,55.90
2023-01-10T10:12:24.764Z,53.20
2023-01-10T10:14:56.501Z,57.10
2023-01-10T10:17:40.258Z,57.80
2023-01-10T10:20:32.176Z,55.20
2023-01-10T10:23:26.972Z,53.60
2023-01-10T10:25:58.546Z,56.80
2023-01-10T10:28:55.153Z,54.60
2023-01-10T10:31:40.674Z,59.70
2023-01-10T10:34:49.360Z,64.90
2023-01-10T10:37:39.326Z,63.00
2023-01-10T10:40:14.275Z,62.50
2023-01-10T10:42:51.018Z,61.80
2023-01-10T10:45:36.711Z,66.50
2023-01-10T10:48:30.676Z,67.40
2023-01-10T10:51:02.264Z,65.90
2023-01-10T10:53:34.619Z,59.40
2023-01-10T10:56:15.257Z,58.10
2023-01-10T10:58:53.871Z,62.20
2023-01-10T11:01:27.079Z,52.10
2023-01-10T11:04:02.531Z,54.30
2023-01-10T11:06:38.672Z,53.70
2023-01-10T11:09:12.643Z,54.20
2023-01-10T11:11:47.598Z,52.60
2023-01-10T11:14:49.558Z,53.30
2023-01-10T11:17:29.599Z,59.00
2023-01-10T11:20:17.156Z,57.00
2023-01-10T11:22:55.195Z,59.90
2023-01-10T11:25:26.986Z,51.20
2023-01-10T11:28:06.422Z,58.40
2023-01-10T11:30:38.216Z,53.90
2023-01-10T11:33:22.133Z,54.90
2023-01-10T11:38:35.560Z,55.10
2023-01-10T11:41:19.260Z,51.70
2023-01-10T11:43:51.574Z,54.60
2023-01-10T11:46:25.897Z,49.90
2023-01-10T11:49:08.244Z,51.00
2023-01-10T11:51:47.589Z,49.50
2023-01-10T11:54:32.867Z,56.00
2023-01-10T11:57:19.042Z,57.70
2023-01-10T11:59:54.032Z,57.30
2023-01-10T12:02:37.348Z,59.20
2023-01-10T12:05:23.768Z,54.80
2023-01-10T12:08:08.053Z,54.40
2023-01-10T12:10:44.479Z,53.80
2023-01-10T12:13:17.507Z,52.10
2023-01-10T12:15:49.938Z,52.80
2023-01-10T12:18:21.707Z,53.20
2023-01-10T12:20:54.487Z,55.80
2023-01-10T12:23:30.750Z,55.40
2023-01-10T12:26:11.494Z,52.70
2023-01-10T12:28:53.738Z,56.00
2023-01-10T12:31:29.481Z,53.70
2023-01-10T12:34:07.800Z,61.10
2023-01-10T12:36:49.478Z,58.00
2023-01-10T12:39:33.965Z,59.30
2023-01-10T12:42:29.569Z,62.10
2023-01-10T12:45:23.771Z,60.20
2023-01-10T12:50:40.361Z,60.70
2023-01-10T12:53:25.634Z,56.20
2023-01-10T12:56:04.418Z,55.80
2023-01-10T12:58:44.649Z,53.20
2023-01-10T13:01:24.576Z,54.40
2023-01-10T13:04:04.504Z,55.60
2023-01-10T13:06:45.596Z,54.70
2023-01-10T13:09:23.698Z,54.10
2023-01-10T13:12:05.580Z,56.00
2023-01-10T13:14:45.219Z,63.50
2023-01-10T13:17:29.383Z,60.40
2023-01-10T13:20:16.189Z,64.70
2023-01-10T13:22:53.172Z,64.00
2023-01-10T13:25:39.604Z,63.80
2023-01-10T13:28:22.798Z,69.40
2023-01-10T13:31:02.519Z,69.50
2023-01-10T13:33:57.638Z,77.30
2023-01-10T13:36:37.955Z,67.80
2023-01-10T13:39:40.829Z,64.70
2023-01-10T13:42:45.515Z,71.50
2023-01-10T13:45:29.104Z,71.30
2023-01-10T13:48:03.596Z,69.70
2023-01-10T13:50:42.238Z,73.50
2023-01-10T13:53:15.077Z,78.60
2023-01-10T13:55:56.507Z,75.90
2023-01-10T13:59:00.675Z,89.80
2023-01-10T14:01:56.825Z,83.90
2023-01-10T14:04:37.703Z,86.30
2023-01-10T14:07:25.882Z,87.20
2023-01-10T14:10:05.039Z,71.60
2023-01-10T14:12:57.967Z,63.10
2023-01-10T14:15:39.919Z,65.00
2023-01-10T14:18:23.127Z,91.30
2023-01-10T14:21:03.171Z,78.50
2023-01-10T14:23:38.840Z,82.80
2023-01-10T14:26:29.801Z,79.60
2023-01-10T14:29:14.123Z,77.00
2023-01-10T14:31:53.065Z,82.20
2023-01-10T14:34:30.689Z,88.00
2023-01-10T14:37:10.800Z,93.10
2023-01-10T14:39:43.960Z,86.50
2023-01-10T14:42:18.409Z,84.40
2023-01-10T14:45:01.921Z,90.60
2023-01-10T14:47:35.854Z,81.90
2023-01-10T14:50:24.361Z,84.10
2023-01-10T14:52:59.396Z,90.50
2023-01-10T14:55:31.707Z,90.70
2023-01-10T14:58:05.763Z,85.20
2023-01-10T15:00:37.545Z,90.30
2023-01-10T15:03:19.158Z,86.90
2023-01-10T15:05:58.045Z,86.50
2023-01-10T15:08:33.248Z,87.90
2023-01-10T15:11:09.379Z,84.50
2023-01-10T15:14:03.707Z,81.00
2023-01-10T15:16:40.723Z,85.90
2023-01-10T15:19:18.112Z,96.40
2023-01-10T15:21:50.373Z,83.00
2023-01-10T15:24:34.245Z,84.40
2023-01-10T15:29:49.857Z,80.30
2023-01-10T15:32:35.479Z,97.60
2023-01-10T15:35:11.991Z,81.90
2023-01-10T15:37:59.943Z,85.10
2023-01-10T15:40:35.672Z,78.20
2023-01-10T15:43:14.084Z,82.00
2023-01-10T15:45:53.269Z,86.00
2023-01-10T15:48:33.847Z,90.80
2023-01-10T15:51:30.587Z,82.60
2023-01-10T15:54:05.625Z,87.50
2023-01-10T15:56:49.521Z,87.80
2023-01-10T15:59:28.644Z,79.20
2023-01-10T16:02:24.910Z,91.20
2023-01-10T16:05:12.448Z,89.10
2023-01-10T16:07:48.027Z,83.00
2023-01-10T16:10:27.147Z,85.50
2023-01-10T16:13:28.694Z,83.00
2023-01-10T16:16:05.031Z,82.80
2023-01-10T16:18:50.922Z,83.20
2023-01-10T16:21:23.030Z,91.70
2023-01-10T16:23:54.984Z,88.00
2023-01-10T16:26:29.036Z,92.20
2023-01-10T16:29:00.857Z,91.80
2023-01-10T16:31:32.634Z,94.60
2023-01-10T16:34:04.525Z,99.90
2023-01-10T16:36:38.214Z,101.80
2023-01-10T16:39:36.238Z,92.70
2023-01-10T16:42:31.159Z,96.60
2023-01-10T16:45:02.805Z,102.20
2023-01-10T16:47:34.919Z,104.60
2023-01-10T16:50:12.605Z,88.90
2023-01-10T16:52:44.305Z,99.70
2023-01-10T16:55:20.237Z,92.40
2023-01-10T16:57:52.179Z,88.10
2023-01-10T17:00:24.207Z,93.90
2023-01-10T17:03:05.289Z,100.10
2023-01-10T17:05:38.694Z,97.70
2023-01-10T17:08:19.799Z,103.50
2023-01-10T17:10:56.623Z,109.70
2023-01-10T17:13:34.376Z,112.80
2023-01-10T17:16:06.860Z,97.50
2023-01-10T17:18:39.636Z,106.80
2023-01-10T17:21:16.611Z,92.30
2023-01-10T17:23:51.268Z,89.60
2023-01-10T17:26:23.093Z,104.30
2023-01-10T17:28:55.467Z,95.50
2023-01-10T17:31:27.215Z,104.30
2023-01-10T17:34:15.055Z,88.50
2023-01-10T17:37:01.234Z,107.70
2023-01-10T17:39:46.509Z,109.50
2023-01-10T17:42:34.544Z,110.00
2023-01-10T17:45:30.924Z,110.70
2023-01-10T17:48:14.544Z,121.40
2023-01-10T17:54:04.047Z,115.30
2023-01-10T17:56:35.919Z,131.70
2023-01-10T17:59:07.926Z,119.00
2023-01-10T18:01:39.846Z,119.30
2023-01-10T18:04:11.822Z,114.40
2023-01-10T18:06:43.977Z,111.00
2023-01-10T18:09:15.619Z,108.70
2023-01-10T18:11:47.204Z,99.30
2023-01-10T18:14:37.386Z,91.60
2023-01-10T18:17:11.731Z,77.80
2023-01-10T18:19:44.628Z,72.50
2023-01-10T18:22:34.992Z,62.90
2023-01-10T18:25:07.584Z,66.20
2023-01-10T18:27:43.009Z,64.70
2023-01-10T18:30:19.135Z,63.10
2023-01-10T18:32:53.093Z,63.00
2023-01-10T18:35:26.417Z,62.20
2023-01-10T18:37:59.516Z,63.50
2023-01-10T18:40:31.373Z,88.70
2023-01-10T18:43:03.021Z,89.30
2023-01-10T18:45:38.911Z,100.20
2023-01-10T18:48:12.521Z,103.10
2023-01-10T18:53:16.757Z,120.30
2023-01-10T18:56:04.457Z,100.90
2023-01-10T18:58:39.372Z,115.90
2023-01-10T19:01:20.112Z,103.10
2023-01-10T19:03:52.140Z,98.10
2023-01-10T19:06:24.372Z,101.80
2023-01-10T19:08:56.031Z,96.50
2023-01-10T19:11:27.664Z,96.20
2023-01-10T19:14:00.315Z,93.10
2023-01-10T19:16:32.674Z,84.60
2023-01-10T19:19:09.193Z,80.50
2023-01-10T19:21:42.487Z,89.70
2023-01-10T19:31:30.367Z,83.80
2023-01-10T19:34:02.137Z,82.00
2023-01-10T19:36:34.888Z,78.40
2023-01-10T19:39:07.252Z,79.80
2023-01-10T19:41:43.373Z,83.70
2023-01-10T19:44:16.753Z,104.20
2023-01-10T19:46:49.499Z,84.60
2023-01-10T19:49:21.351Z,90.20
2023-01-10T19:51:53.860Z,91.60
2023-01-10T19:54:25.800Z,95.80
2023-01-10T19:56:57.985Z,87.40
2023-01-10T19:59:32.714Z,100.30
2023-01-10T20:02:06.764Z,101.00
2023-01-10T20:04:38.531Z,101.90
2023-01-10T20:07:10.194Z,83.20
2023-01-10T20:09:42.284Z,88.70
2023-01-10T20:12:15.169Z,82.10
2023-01-10T20:14:48.564Z,78.30
2023-01-10T20:17:21.867Z,75.50
2023-01-10T20:19:56.124Z,78.70
2023-01-10T20:22:28.417Z,87.30
2023-01-10T20:25:00.998Z,87.10
2023-01-10T20:27:38.217Z,113.10
2023-01-10T20:30:14.196Z,89.60
2023-01-10T20:32:46.247Z,88.30
2023-01-10T20:35:22.443Z,91.30
2023-01-10T20:37:54.116Z,83.50
2023-01-10T20:40:26.295Z,90.90
2023-01-10T20:42:57.955Z,84.70
2023-01-10T20:45:32.373Z,103.60
2023-01-10T20:48:04.580Z,112.50
2023-01-10T20:50:39.912Z,99.00
2023-01-10T20:53:13.729Z,87.30
2023-01-10T20:55:56.258Z,88.00
2023-01-10T20:58:33.815Z,82.60
2023-01-10T21:01:08.248Z,70.60
2023-01-10T21:03:42.837Z,72.90
2023-01-10T21:06:16.479Z,68.90
2023-01-10T21:08:52.991Z,69.80
2023-01-10T21:11:24.874Z,67.80
2023-01-10T21:13:56.531Z,81.40
2023-01-10T21:16:31.330Z,75.50
2023-01-10T21:19:03.045Z,65.50
2023-01-10T21:21:34.796Z,65.20
2023-01-10T21:24:07.120Z,65.20
2023-01-10T21:26:38.889Z,60.40
2023-01-10T21:29:12.960Z,60.10
2023-01-10T21:31:45.042Z,60.30
2023-01-10T21:34:16.691Z,74.40
2023-01-10T21:36:48.435Z,64.90
2023-01-10T21:39:20.268Z,69.00
2023-01-10T21:42:10.570Z,78.70
2023-01-10T21:44:42.196Z,82.50
2023-01-10T21:47:16.055Z,83.30
2023-01-10T21:49:47.761Z,74.20
2023-01-10T21:52:19.519Z,67.40
2023-01-10T21:54:51.238Z,64.70
2023-01-10T21:57:23.570Z,68.80
2023-01-10T21:59:55.261Z,62.60
2023-01-10T22:02:32.200Z,62.20
2023-01-10T22:05:04.027Z,77.30
2023-01-10T22:07:35.944Z,65.80
2023-01-10T22:10:08.939Z,68.10
2023-01-10T22:12:40.694Z,72.60
2023-01-10T22:15:12.661Z,88.10
2023-01-10T22:17:48.325Z,100.90
2023-01-10T22:20:22.941Z,95.80
2023-01-10T22:22:54.605Z,93.70
2023-01-10T22:25:26.390Z,86.40
2023-01-10T22:27:58.094Z,145.20
2023-01-10T22:30:29.748Z,148.60
2023-01-10T22:33:01.931Z,116.30
2023-01-10T22:35:33.941Z,111.60
2023-01-10T22:38:05.536Z,106.10
2023-01-10T22:40:38.151Z,101.40
2023-01-10T22:43:09.927Z,97.90
2023-01-10T22:45:44.071Z,92.50
2023-01-10T22:48:15.997Z,84.60
2023-01-10T22:50:49.253Z,93.60
2023-01-10T22:53:21.153Z,86.60
2023-01-10T22:55:53.488Z,101.10
2023-01-10T22:58:28.445Z,98.00
2023-01-10T23:01:07.275Z,86.10
2023-01-10T23:03:39.032Z,82.90
2023-01-10T23:06:11.820Z,86.50
2023-01-10T23:08:44.443Z,83.70
2023-01-10T23:11:18.598Z,85.60
2023-01-10T23:13:50.310Z,75.40
2023-01-10T23:16:28.865Z,79.70
2023-01-10T23:19:01.171Z,77.40
2023-01-10T23:21:32.892Z,90.90
2023-01-10T23:24:04.896Z,86.30
2023-01-10T23:26:36.515Z,91.80
2023-01-10T23:29:08.483Z,90.40
2023-01-10T23:31:40.328Z,94.40
2023-01-10T23:34:12.023Z,91.00
2023-01-10T23:36:43.675Z,89.20
2023-01-10T23:39:19.056Z,81.60
2023-01-10T23:41:50.709Z,93.40
2023-01-10T23:44:22.555Z,77.20
2023-01-10T23:46:55.384Z,77.60
2023-01-10T23:49:27.000Z,70.70
2023-01-10T23:52:01.156Z,75.80
2023-01-10T23:54:33.059Z,78.00
2023-01-10T23:57:04.686Z,72.50
2023-01-10T23:59:39.215Z,74.10
